createdAt,value
2018-12-23T00:02:02.028Z,15.00
2018-12-23T00:04:29.836Z,14.17
2018-12-23T00:06:59.066Z,15.97
2018-12-23T00:09:27.134Z,16.93
2018-12-23T00:11:56.229Z,15.43
2018-12-23T00:14:24.022Z,15.43
2018-12-23T00:16:51.961Z,16.57
2018-12-23T00:19:19.738Z,17.03
2018-12-23T00:21:47.903Z,16.77
2018-12-23T00:24:15.714Z,16.50
2018-12-23T00:26:43.601Z,17.57
2018-12-23T00:29:11.476Z,14.33
2018-12-23T00:31:39.541Z,15.13
2018-12-23T00:34:07.311Z,18.33
2018-12-23T00:36:35.274Z,16.37
2018-12-23T00:39:05.713Z,16.13
2018-12-23T00:41:33.667Z,16.97
2018-12-23T00:44:01.540Z,15.80
2018-12-23T00:46:29.715Z,17.77
2018-12-23T00:48:57.474Z,17.53
2018-12-23T00:51:25.558Z,18.30
2018-12-23T00:53:53.440Z,16.37
2018-12-23T00:56:21.340Z,16.23
2018-12-23T00:58:49.764Z,17.53
2018-12-23T01:01:17.843Z,18.67
2018-12-23T01:03:45.630Z,17.93
2018-12-23T01:06:13.976Z,17.70
2018-12-23T01:08:41.770Z,18.10
2018-12-23T01:11:09.941Z,17.90
2018-12-23T01:13:38.190Z,18.80
2018-12-23T01:16:06.054Z,17.67
2018-12-23T01:18:33.926Z,18.60
2018-12-23T01:21:01.818Z,19.97
2018-12-23T01:23:29.862Z,17.03
2018-12-23T01:25:57.731Z,19.27
2018-12-23T01:28:27.013Z,19.10
2018-12-23T01:30:55.004Z,18.93
2018-12-23T01:33:23.403Z,18.90
2018-12-23T01:35:51.264Z,20.13
2018-12-23T01:38:19.508Z,19.67
2018-12-23T01:40:47.302Z,20.40
2018-12-23T01:43:15.386Z,18.50
2018-12-23T01:45:43.315Z,18.30
2018-12-23T01:48:11.346Z,19.73
2018-12-23T01:50:39.121Z,20.63
2018-12-23T01:53:07.092Z,19.30
2018-12-23T01:55:34.986Z,18.27
2018-12-23T01:58:02.799Z,17.57
2018-12-23T02:00:30.743Z,17.63
2018-12-23T02:03:00.004Z,19.37
2018-12-23T02:05:27.880Z,17.77
2018-12-23T02:07:55.750Z,16.90
2018-12-23T02:10:23.527Z,15.93
2018-12-23T02:12:51.611Z,15.63
2018-12-23T02:15:19.573Z,16.53
2018-12-23T02:17:47.618Z,16.63
2018-12-23T02:20:15.378Z,15.90
2018-12-23T02:22:43.343Z,17.10
2018-12-23T02:25:11.202Z,16.13
2018-12-23T02:27:40.093Z,16.00
2018-12-23T02:30:08.431Z,17.30
2018-12-23T02:32:36.866Z,15.20
2018-12-23T02:35:04.787Z,15.97
2018-12-23T02:37:32.652Z,14.67
2018-12-23T02:40:00.446Z,16.53
2018-12-23T02:42:28.304Z,14.50
2018-12-23T02:44:56.090Z,15.37
2018-12-23T02:47:24.028Z,15.47
2018-12-23T02:49:51.858Z,15.67
2018-12-23T02:52:20.919Z,15.63
2018-12-23T02:54:48.904Z,13.53
2018-12-23T02:57:16.774Z,14.33
2018-12-23T02:59:44.830Z,16.07
2018-12-23T03:02:12.954Z,14.93
2018-12-23T03:04:40.785Z,15.07
2018-12-23T03:07:08.589Z,15.40
2018-12-23T03:09:36.510Z,14.63
2018-12-23T03:12:04.370Z,13.60
2018-12-23T03:14:32.160Z,12.40
2018-12-23T03:16:59.961Z,16.03
2018-12-23T03:19:30.008Z,12.57
2018-12-23T03:21:57.905Z,14.87
2018-12-23T03:24:28.011Z,13.83
2018-12-23T03:26:55.821Z,12.00
2018-12-23T03:29:24.945Z,11.50
2018-12-23T03:31:53.054Z,13.33
2018-12-23T03:34:22.139Z,11.80
2018-12-23T03:36:50.045Z,11.73
2018-12-23T03:39:18.044Z,12.47
2018-12-23T03:41:45.937Z,12.00
2018-12-23T03:44:14.423Z,12.40
2018-12-23T03:46:42.485Z,12.43
2018-12-23T03:49:10.550Z,12.87
2018-12-23T03:51:38.423Z,12.00
2018-12-23T03:54:06.301Z,11.63
2018-12-23T03:56:34.170Z,12.27
2018-12-23T03:59:02.043Z,11.47
2018-12-23T04:01:29.902Z,13.13
2018-12-23T04:03:57.706Z,13.37
2018-12-23T04:06:25.614Z,12.80
2018-12-23T04:08:53.505Z,14.80
2018-12-23T04:11:23.637Z,13.73
2018-12-23T04:13:51.709Z,13.57
2018-12-23T04:16:20.695Z,13.27
2018-12-23T04:18:48.622Z,13.57
2018-12-23T04:21:17.731Z,13.60
2018-12-23T04:23:45.597Z,14.00
2018-12-23T04:26:13.470Z,13.43
2018-12-23T04:28:41.328Z,13.50
2018-12-23T04:31:09.147Z,14.20
2018-12-23T04:33:37.077Z,13.97
2018-12-23T04:36:05.933Z,12.83
2018-12-23T04:38:33.828Z,13.13
2018-12-23T04:41:02.879Z,13.67
2018-12-23T04:43:30.794Z,11.70
2018-12-23T04:45:59.856Z,12.93
2018-12-23T04:48:27.721Z,13.77
2018-12-23T04:50:55.726Z,14.00
2018-12-23T04:53:23.872Z,15.07
2018-12-23T04:55:53.153Z,14.90
2018-12-23T04:58:21.187Z,15.50
2018-12-23T05:00:49.522Z,15.30
2018-12-23T05:03:17.776Z,14.70
2018-12-23T05:05:49.963Z,13.93
2018-12-23T05:08:17.742Z,14.43
2018-12-23T05:10:54.097Z,14.37
2018-12-23T05:13:21.953Z,14.73
2018-12-23T05:15:49.784Z,15.00
2018-12-23T05:18:19.529Z,15.80
2018-12-23T05:20:47.381Z,16.87
2018-12-23T05:23:15.349Z,16.30
2018-12-23T05:25:43.238Z,15.37
2018-12-23T05:28:11.203Z,14.67
2018-12-23T05:30:43.359Z,14.40
2018-12-23T05:33:11.246Z,14.83
2018-12-23T05:35:48.956Z,14.80
2018-12-23T05:38:16.800Z,15.27
2018-12-23T05:40:47.104Z,16.27
2018-12-23T05:43:14.976Z,15.47
2018-12-23T05:45:44.037Z,17.30
2018-12-23T05:48:11.951Z,14.90
2018-12-23T05:50:41.018Z,16.87
2018-12-23T05:53:08.821Z,14.83
2018-12-23T05:55:46.216Z,16.20
2018-12-23T05:58:14.077Z,15.97
2018-12-23T06:00:44.195Z,16.50
2018-12-23T06:03:12.019Z,15.63
2018-12-23T06:05:40.010Z,15.17
2018-12-23T06:08:07.986Z,16.10
2018-12-23T06:10:35.840Z,14.03
2018-12-23T06:13:05.162Z,15.37
2018-12-23T06:15:32.940Z,16.97
2018-12-23T06:18:13.960Z,15.87
2018-12-23T06:20:41.762Z,15.90
2018-12-23T06:23:10.622Z,15.87
2018-12-23T06:25:38.384Z,15.40
2018-12-23T06:28:42.431Z,14.90
2018-12-23T06:31:10.190Z,15.00
2018-12-23T06:33:38.175Z,14.47
2018-12-23T06:36:05.972Z,16.67
2018-12-23T06:38:36.442Z,14.73
2018-12-23T06:41:04.513Z,14.40
2018-12-23T06:43:32.508Z,15.07
2018-12-23T06:46:00.292Z,13.93
2018-12-23T06:48:35.546Z,15.13
2018-12-23T06:51:03.449Z,12.83
2018-12-23T06:54:19.411Z,11.53
2018-12-23T06:56:59.824Z,11.37
2018-12-23T06:59:40.148Z,13.18
2018-12-23T07:02:20.695Z,11.17
2018-12-23T07:05:01.196Z,10.90
2018-12-23T07:07:41.957Z,10.00
2018-12-23T07:10:22.356Z,9.63
2018-12-23T07:13:02.752Z,10.53
2018-12-23T07:15:43.189Z,9.93
2018-12-23T07:18:23.880Z,11.60
2018-12-23T07:21:04.054Z,11.57
2018-12-23T07:23:44.624Z,10.67
2018-12-23T07:26:25.058Z,11.37
2018-12-23T07:29:05.895Z,9.07
2018-12-23T07:31:46.118Z,10.40
2018-12-23T07:34:26.772Z,11.10
2018-12-23T07:37:07.641Z,10.70
2018-12-23T07:39:47.472Z,10.70
2018-12-23T07:42:28.055Z,10.90
2018-12-23T07:45:08.642Z,10.77
2018-12-23T07:47:49.117Z,10.50
2018-12-23T07:50:29.678Z,11.87
2018-12-23T07:53:10.107Z,12.07
2018-12-23T07:55:50.547Z,11.33
2018-12-23T07:58:30.884Z,10.43
2018-12-23T08:01:11.258Z,10.80
2018-12-23T08:03:51.919Z,12.13
2018-12-23T08:06:32.701Z,11.37
2018-12-23T08:09:13.109Z,10.60
2018-12-23T08:11:53.802Z,12.03
2018-12-23T08:14:34.328Z,12.73
2018-12-23T08:17:19.039Z,12.47
2018-12-23T08:19:59.364Z,11.70
2018-12-23T08:22:40.001Z,11.60
2018-12-23T08:25:20.562Z,12.43
2018-12-23T08:28:01.313Z,12.90
2018-12-23T08:30:41.391Z,12.70
2018-12-23T08:36:48.323Z,14.27
2018-12-23T08:39:28.630Z,13.93
2018-12-23T08:42:09.171Z,13.70
2018-12-23T08:44:49.599Z,16.23
2018-12-23T08:47:30.062Z,16.20
2018-12-23T08:50:10.420Z,15.30
2018-12-23T08:52:50.886Z,16.20
2018-12-23T08:55:31.645Z,15.77
2018-12-23T08:58:12.214Z,14.90
2018-12-23T09:00:52.844Z,16.17
2018-12-23T09:03:33.014Z,16.43
2018-12-23T09:06:13.307Z,16.17
2018-12-23T09:08:53.677Z,18.93
2018-12-23T09:11:42.546Z,17.67
2018-12-23T09:14:16.650Z,17.47
2018-12-23T09:16:57.208Z,17.50
2018-12-23T09:19:37.483Z,15.60
2018-12-23T09:22:19.758Z,16.33
2018-12-23T09:24:59.782Z,17.23
2018-12-23T09:27:40.125Z,17.43
2018-12-23T09:30:20.591Z,15.90
2018-12-23T09:33:01.157Z,16.60
2018-12-23T09:35:41.633Z,18.30
2018-12-23T09:38:21.912Z,17.20
2018-12-23T09:41:02.608Z,16.60
2018-12-23T09:43:43.191Z,16.80
2018-12-23T09:46:23.730Z,16.63
2018-12-23T09:49:04.484Z,15.77
2018-12-23T09:51:44.714Z,16.80
2018-12-23T09:54:25.676Z,18.23
2018-12-23T09:57:05.949Z,18.67
2018-12-23T09:59:46.457Z,18.27
2018-12-23T10:02:26.994Z,20.27
2018-12-23T10:05:07.406Z,19.00
2018-12-23T10:07:47.654Z,17.70
2018-12-23T10:10:28.546Z,19.27
2018-12-23T10:13:09.593Z,19.30
2018-12-23T10:15:49.939Z,19.50
2018-12-23T10:18:30.715Z,20.67
2018-12-23T10:21:11.266Z,20.80
2018-12-23T10:23:51.450Z,21.63
2018-12-23T10:26:32.366Z,20.30
2018-12-23T10:29:12.604Z,20.77
2018-12-23T10:31:53.186Z,20.50
2018-12-23T10:34:33.886Z,21.23
2018-12-23T10:37:14.479Z,20.93
2018-12-23T10:39:55.005Z,22.07
2018-12-23T10:42:35.802Z,21.40
2018-12-23T10:45:16.397Z,18.93
2018-12-23T10:47:57.155Z,20.50
2018-12-23T10:50:37.864Z,19.87
2018-12-23T10:53:18.521Z,17.90
2018-12-23T10:55:59.281Z,17.57
2018-12-23T10:58:39.755Z,15.73
2018-12-23T11:01:18.848Z,16.17
2018-12-23T11:07:08.554Z,14.73
2018-12-23T11:09:49.242Z,13.07
2018-12-23T11:12:29.104Z,12.10
2018-12-23T11:15:09.600Z,12.60
2018-12-23T11:20:33.027Z,12.40
2018-12-23T11:23:13.553Z,13.87
2018-12-23T11:25:54.071Z,12.93
2018-12-23T11:28:33.902Z,13.20
2018-12-23T11:31:14.794Z,10.70
2018-12-23T11:33:55.157Z,10.67
2018-12-23T11:36:35.881Z,11.17
2018-12-23T11:39:16.334Z,9.63
2018-12-23T11:41:56.948Z,10.93
2018-12-23T11:44:37.553Z,10.37
2018-12-23T11:47:18.561Z,10.33
2018-12-23T11:52:43.370Z,10.33
2018-12-23T11:55:23.494Z,10.70
2018-12-23T11:58:03.828Z,9.90
2018-12-23T12:00:43.731Z,10.23
2018-12-23T12:03:28.475Z,11.17
2018-12-23T12:06:08.543Z,10.53
2018-12-23T12:08:48.994Z,11.67
2018-12-23T12:11:29.817Z,13.33
2018-12-23T12:14:10.449Z,15.67
2018-12-23T12:16:50.940Z,10.33
2018-12-23T12:19:31.306Z,13.67
2018-12-23T12:22:11.159Z,12.37
2018-12-23T12:24:51.713Z,13.10
2018-12-23T12:27:32.169Z,13.13
2018-12-23T12:30:12.708Z,12.07
2018-12-23T12:49:43.132Z,13.67
2018-12-23T12:52:11.538Z,11.07
2018-12-23T12:54:39.598Z,11.93
2018-12-23T12:57:08.063Z,13.77
2018-12-23T12:59:36.668Z,13.27
2018-12-23T13:02:05.056Z,13.93
2018-12-23T13:04:33.162Z,13.73
2018-12-23T13:07:01.482Z,14.10
2018-12-23T13:09:28.961Z,13.43
2018-12-23T13:12:02.719Z,14.43
2018-12-23T13:14:31.183Z,13.20
2018-12-23T13:16:59.289Z,12.67
2018-12-23T13:19:28.603Z,12.83
2018-12-23T13:21:56.692Z,14.53
2018-12-23T13:24:43.078Z,12.93
2018-12-23T13:27:11.534Z,13.83
2018-12-23T13:29:45.594Z,13.67
2018-12-23T13:32:13.623Z,13.87
2018-12-23T13:34:43.520Z,12.20
2018-12-23T13:37:11.622Z,13.37
2018-12-23T13:39:39.848Z,16.07
2018-12-23T13:42:36.186Z,15.53
2018-12-23T13:45:31.573Z,16.87
2018-12-23T13:48:22.623Z,16.97
2018-12-23T13:51:13.427Z,18.53
2018-12-23T13:54:18.293Z,18.80
2018-12-23T13:57:14.821Z,17.93
2018-12-23T13:59:59.674Z,17.37
2018-12-23T14:02:30.717Z,17.97
2018-12-23T14:05:18.400Z,17.43
2018-12-23T14:08:04.629Z,18.00
2018-12-23T14:11:01.185Z,18.03
2018-12-23T14:13:29.211Z,17.53
2018-12-23T14:15:57.533Z,18.63
2018-12-23T14:18:25.785Z,18.20
2018-12-23T14:20:54.158Z,17.83
2018-12-23T14:23:22.405Z,20.00
2018-12-23T14:25:50.647Z,21.20
2018-12-23T14:28:18.763Z,21.50
2018-12-23T14:30:48.060Z,21.67
2018-12-23T14:33:16.280Z,22.00
2018-12-23T14:35:44.616Z,25.37
2018-12-23T14:38:12.571Z,24.23
2018-12-23T14:40:41.280Z,26.60
2018-12-23T14:43:09.356Z,25.70
2018-12-23T14:45:37.416Z,28.37
2018-12-23T14:48:11.013Z,29.37
2018-12-23T14:50:39.081Z,37.48
2018-12-23T14:53:07.653Z,29.97
2018-12-23T14:55:35.700Z,29.20
2018-12-23T14:58:03.749Z,31.80
2018-12-23T15:00:32.937Z,30.57
2018-12-23T15:03:01.025Z,30.93
2018-12-23T15:05:29.400Z,28.90
2018-12-23T15:07:57.363Z,31.23
2018-12-23T15:10:25.465Z,30.47
2018-12-23T15:12:55.007Z,29.83
2018-12-23T15:15:33.607Z,30.43
2018-12-23T15:18:01.663Z,30.33
2018-12-23T15:20:30.063Z,28.67
2018-12-23T15:22:58.162Z,29.80
2018-12-23T15:25:26.544Z,27.43
2018-12-23T15:27:54.708Z,22.73
2018-12-23T15:30:22.806Z,28.37
2018-12-23T15:32:50.842Z,23.40
2018-12-23T15:35:19.101Z,24.77
2018-12-23T15:37:47.586Z,21.53
2018-12-23T15:40:15.652Z,19.40
2018-12-23T15:42:43.887Z,18.47
2018-12-23T15:45:12.076Z,17.47
2018-12-23T15:47:40.133Z,17.87
2018-12-23T15:50:08.237Z,16.20
2018-12-23T15:52:36.698Z,15.63
2018-12-23T15:55:06.203Z,14.47
2018-12-23T15:57:34.215Z,18.87
2018-12-23T16:00:02.470Z,14.63
2018-12-23T16:02:30.475Z,16.23
2018-12-23T16:04:58.709Z,14.23
2018-12-23T16:07:27.076Z,15.37
2018-12-23T16:09:55.395Z,14.50
2018-12-23T16:12:23.487Z,13.97
2018-12-23T16:14:51.692Z,14.87
2018-12-23T16:17:21.161Z,16.53
2018-12-23T16:19:50.031Z,16.07
2018-12-23T16:22:21.167Z,17.83
2018-12-23T16:24:49.257Z,18.83
2018-12-23T16:27:17.492Z,19.50
2018-12-23T16:29:45.502Z,18.73
2018-12-23T16:32:16.216Z,19.60
2018-12-23T16:34:49.899Z,21.33
2018-12-23T16:37:19.023Z,19.83
2018-12-23T16:39:47.095Z,18.13
2018-12-23T16:42:15.581Z,18.57
2018-12-23T16:44:43.622Z,18.60
2018-12-23T16:47:12.053Z,20.20
2018-12-23T16:49:40.954Z,19.73
2018-12-23T16:52:09.323Z,20.20
2018-12-23T16:54:37.851Z,19.60
2018-12-23T16:57:06.345Z,18.40
2018-12-23T16:59:34.782Z,17.77
2018-12-23T17:02:03.197Z,18.37
2018-12-23T17:04:31.245Z,18.10
2018-12-23T17:06:59.724Z,19.53
2018-12-23T17:09:30.078Z,18.53
2018-12-23T17:12:01.855Z,19.00
2018-12-23T17:14:31.189Z,18.77
2018-12-23T17:16:59.246Z,17.27
2018-12-23T17:19:28.896Z,18.67
2018-12-23T17:21:59.178Z,20.33
2018-12-23T17:24:31.461Z,16.80
2018-12-23T17:26:59.711Z,16.57
2018-12-23T17:29:28.144Z,15.00
2018-12-23T17:31:59.107Z,15.87
2018-12-23T17:34:29.168Z,16.33
2018-12-23T17:36:59.957Z,15.73
2018-12-23T17:39:28.109Z,14.90
2018-12-23T17:41:56.173Z,13.80
2018-12-23T17:44:24.670Z,14.27
2018-12-23T17:47:01.491Z,14.10
2018-12-23T17:49:29.695Z,14.33
2018-12-23T17:51:57.833Z,18.55
2018-12-23T17:54:26.268Z,19.90
2018-12-23T17:56:54.593Z,15.17
2018-12-23T17:59:23.103Z,14.20
2018-12-23T18:01:51.514Z,14.00
2018-12-23T18:04:19.567Z,11.67
2018-12-23T18:06:47.730Z,14.30
2018-12-23T18:09:15.732Z,12.97
2018-12-23T18:11:44.217Z,13.03
2018-12-23T18:14:12.477Z,13.20
2018-12-23T18:16:40.575Z,14.37
2018-12-23T18:19:09.234Z,21.00
2018-12-23T18:21:37.481Z,14.83
2018-12-23T18:24:05.553Z,14.90
2018-12-23T18:26:33.881Z,12.50
2018-12-23T18:29:04.724Z,13.93
2018-12-23T18:31:33.488Z,11.53
2018-12-23T18:34:01.666Z,10.07
2018-12-23T18:36:29.766Z,10.53
2018-12-23T18:39:00.207Z,9.90
2018-12-23T18:41:28.292Z,10.53
2018-12-23T18:44:00.581Z,9.97
2018-12-23T18:46:29.939Z,8.67
2018-12-23T18:48:58.973Z,9.67
2018-12-23T18:51:27.099Z,9.97
2018-12-23T18:53:55.211Z,10.30
2018-12-23T18:56:30.416Z,10.33
2018-12-23T18:58:58.460Z,9.37
2018-12-23T19:01:27.303Z,9.87
2018-12-23T19:03:55.343Z,10.63
2018-12-23T19:06:24.842Z,12.70
2018-12-23T19:08:59.641Z,9.77
2018-12-23T19:11:45.300Z,10.10
2018-12-23T19:14:36.915Z,9.40
2018-12-23T19:17:11.176Z,10.50
2018-12-23T19:20:02.441Z,10.07
2018-12-23T19:23:02.661Z,8.27
2018-12-23T19:26:05.773Z,6.53
2018-12-23T19:28:37.363Z,6.90
2018-12-23T19:31:28.124Z,4.53
2018-12-23T19:33:58.818Z,4.80
2018-12-23T19:36:44.867Z,3.60
2018-12-23T19:39:22.077Z,2.50
2018-12-23T19:42:09.498Z,2.53
2018-12-23T19:44:55.867Z,2.40
2018-12-23T19:47:57.261Z,3.30
2018-12-23T19:50:28.409Z,3.20
2018-12-23T19:53:11.398Z,4.33
2018-12-23T19:56:10.970Z,3.57
2018-12-23T19:59:10.643Z,4.43
2018-12-23T20:02:01.420Z,2.37
2018-12-23T20:05:01.619Z,1.50
2018-12-23T20:07:49.110Z,2.40
2018-12-23T20:10:25.849Z,2.40
2018-12-23T20:13:11.841Z,2.87
2018-12-23T20:15:54.403Z,4.00
2018-12-23T20:18:51.738Z,6.50
2018-12-23T20:21:23.916Z,6.53
2018-12-23T20:24:19.178Z,10.17
2018-12-23T20:27:14.131Z,7.30
2018-12-23T20:30:01.072Z,8.93
2018-12-23T20:32:36.832Z,9.67
2018-12-23T20:35:24.347Z,8.07
2018-12-23T20:38:29.946Z,10.60
2018-12-23T20:41:15.987Z,7.77
2018-12-23T20:44:14.546Z,8.30
2018-12-23T20:47:16.458Z,5.97
2018-12-23T20:49:56.229Z,7.47
2018-12-23T20:52:44.093Z,6.83
2018-12-23T20:55:19.876Z,6.13
2018-12-23T20:58:07.708Z,6.53
2018-12-23T21:01:00.713Z,7.33
2018-12-23T21:03:48.127Z,8.33
2018-12-23T21:06:34.951Z,9.50
2018-12-23T21:09:32.917Z,7.80
2018-12-23T21:12:26.238Z,9.03
2018-12-23T21:15:10.571Z,8.83
2018-12-23T21:21:10.734Z,6.87
2018-12-23T21:23:56.878Z,6.17
2018-12-23T21:26:51.766Z,4.53
2018-12-23T21:29:49.490Z,6.63
2018-12-23T21:32:44.529Z,7.20
2018-12-23T21:35:41.100Z,5.97
2018-12-23T21:38:27.716Z,6.93
2018-12-23T21:41:27.159Z,8.97
2018-12-23T21:44:17.743Z,8.10
2018-12-23T21:47:04.233Z,8.43
2018-12-23T21:49:50.347Z,9.40
2018-12-23T21:52:26.276Z,10.13
2018-12-23T21:55:24.064Z,6.40
2018-12-23T21:58:15.495Z,6.83
2018-12-23T22:01:05.954Z,6.37
2018-12-23T22:03:52.550Z,3.30
2018-12-23T22:06:25.856Z,4.87
2018-12-23T22:09:12.431Z,3.40
2018-12-23T22:12:06.023Z,4.87
2018-12-23T22:14:34.237Z,4.63
2018-12-23T22:17:02.680Z,5.00
2018-12-23T22:19:38.682Z,5.70
2018-12-23T22:22:07.206Z,7.73
2018-12-23T22:24:35.420Z,8.47
2018-12-23T22:27:04.711Z,9.07
2018-12-23T22:29:33.688Z,6.00
2018-12-23T22:32:22.508Z,6.73
2018-12-23T22:34:51.358Z,4.83
2018-12-23T22:37:20.384Z,3.67
2018-12-23T22:39:55.518Z,1.40
2018-12-23T22:42:23.603Z,1.33
2018-12-23T22:44:51.743Z,0.60
2018-12-23T22:47:19.813Z,0.60
2018-12-23T22:49:47.886Z,0.60
2018-12-23T22:52:26.298Z,0.67
2018-12-23T22:54:54.688Z,1.20
2018-12-23T23:00:37.817Z,0.30
2018-12-23T23:03:09.202Z,0.70
2018-12-23T23:05:58.084Z,0.40
2018-12-23T23:08:26.545Z,0.30
2018-12-23T23:10:54.520Z,0.50
2018-12-23T23:13:22.680Z,0.50
2018-12-23T23:15:50.739Z,0.27
2018-12-23T23:18:18.864Z,0.10
2018-12-23T23:20:51.490Z,0.20
2018-12-23T23:23:19.993Z,0.13
2018-12-23T23:25:48.111Z,0.20
2018-12-23T23:28:20.432Z,0.10
2018-12-23T23:30:48.462Z,0.43
2018-12-23T23:33:16.534Z,0.20
2018-12-23T23:35:46.712Z,0.10
2018-12-23T23:38:14.664Z,0.10
2018-12-23T23:40:49.492Z,0.40
2018-12-23T23:43:17.489Z,0.10
2018-12-23T23:45:50.882Z,0.03
2018-12-23T23:48:19.305Z,0.30
2018-12-23T23:50:47.284Z,0.10
2018-12-23T23:53:23.000Z,0.10
2018-12-23T23:55:51.324Z,0.20
2018-12-23T23:58:19.709Z,0.30
